Terminal Aerodrome Forecast
Issued by NWS

Home | Current Version | Previous Version | Text Only | Print | Product List | Glossary Off
Versions: 1 2 3 4 5 6 7 8 9 10 11 12 13 14 15 16 17

000
FTUS41 KCLE 210650 AAA
TAFFDY
TAF AMD
KFDY 210650Z 2107/2206 17012KT 6SM -SHRA VCTS SCT018 OVC100CB
     FM211500 22014G22KT P6SM BKN025
     FM212000 23014G22KT P6SM VCTS SCT025 BKN050CB
     FM212200 25014KT P6SM BKN035=

USA.gov is the U.S. government's official web portal to all federal, state and local government web resources and services.